createdAt,value
2022-12-04T00:01:19.133Z,2.06
2022-12-04T00:03:46.552Z,1.99
2022-12-04T00:06:14.661Z,2.02
2022-12-04T00:08:41.848Z,1.97
2022-12-04T00:11:10.340Z,2.01
2022-12-04T00:13:38.154Z,1.94
2022-12-04T00:16:11.294Z,1.90
2022-12-04T00:18:38.092Z,1.86
2022-12-04T00:21:07.370Z,1.92
2022-12-04T00:23:34.643Z,1.94
2022-12-04T00:26:05.708Z,1.88
2022-12-04T00:28:32.982Z,1.81
2022-12-04T00:30:59.762Z,1.81
2022-12-04T00:33:26.679Z,1.83
2022-12-04T00:36:01.739Z,1.82
2022-12-04T00:38:28.887Z,1.82
2022-12-04T00:40:55.852Z,1.79
2022-12-04T00:43:23.507Z,1.80
2022-12-04T00:45:50.811Z,1.69
2022-12-04T00:48:17.521Z,1.71
2022-12-04T00:50:44.505Z,1.73
2022-12-04T00:53:12.032Z,1.68
2022-12-04T00:55:42.501Z,1.60
2022-12-04T00:58:10.540Z,1.63
2022-12-04T01:00:39.190Z,1.62
2022-12-04T01:03:06.937Z,1.64
2022-12-04T01:05:39.264Z,1.62
2022-12-04T01:08:06.024Z,1.58
2022-12-04T01:10:32.944Z,1.57
2022-12-04T01:12:59.600Z,1.54
2022-12-04T01:15:26.170Z,1.45
2022-12-04T01:17:52.806Z,1.44
2022-12-04T01:20:19.599Z,1.24
2022-12-04T01:22:46.196Z,1.18
2022-12-04T01:25:12.899Z,1.16
2022-12-04T01:27:39.609Z,1.19
2022-12-04T01:30:09.577Z,1.19
2022-12-04T01:32:36.175Z,1.23
2022-12-04T01:35:02.804Z,1.17
2022-12-04T01:37:33.923Z,1.09
2022-12-04T01:40:00.869Z,1.15
2022-12-04T01:42:27.835Z,1.11
2022-12-04T01:45:31.694Z,1.06
2022-12-04T01:48:09.108Z,1.04
2022-12-04T01:50:36.066Z,1.02
2022-12-04T01:53:02.881Z,0.91
2022-12-04T01:55:30.963Z,0.93
2022-12-04T01:57:58.790Z,0.91
2022-12-04T02:00:28.051Z,0.89
2022-12-04T02:02:55.900Z,0.83
2022-12-04T02:05:23.403Z,0.98
2022-12-04T02:07:53.169Z,1.03
2022-12-04T02:10:24.688Z,1.06
2022-12-04T02:13:14.122Z,0.98
2022-12-04T02:16:39.196Z,1.10
2022-12-04T02:19:33.519Z,1.14
2022-12-04T02:22:07.224Z,0.99
2022-12-04T02:25:18.671Z,0.84
2022-12-04T02:27:51.506Z,0.77
2022-12-04T02:30:18.507Z,0.72
2022-12-04T02:32:55.467Z,0.61
2022-12-04T02:35:29.133Z,0.56
2022-12-04T02:38:10.658Z,0.52
2022-12-04T02:40:48.908Z,0.53
2022-12-04T02:43:19.024Z,0.50
2022-12-04T02:45:51.954Z,0.55
2022-12-04T02:48:20.730Z,0.45
2022-12-04T02:50:51.281Z,0.56
2022-12-04T02:53:20.991Z,0.47
2022-12-04T02:55:54.219Z,0.43
2022-12-04T02:58:34.725Z,0.43
2022-12-04T03:01:03.368Z,0.37
2022-12-04T03:03:33.315Z,0.37
2022-12-04T03:06:07.885Z,0.26
2022-12-04T03:09:00.649Z,0.29
2022-12-04T03:11:32.039Z,0.27
2022-12-04T03:14:11.751Z,0.33
2022-12-04T03:16:41.866Z,0.38
2022-12-04T03:19:19.907Z,0.27
2022-12-04T03:21:51.182Z,0.17
2022-12-04T03:24:23.619Z,0.12
2022-12-04T03:26:57.680Z,0.16
2022-12-04T03:29:34.618Z,0.04
2022-12-04T03:32:08.389Z,0.02
2022-12-04T03:35:02.966Z,0.05
2022-12-04T03:37:59.973Z,0.00
2022-12-04T03:40:38.346Z,0.03
2022-12-04T03:43:32.098Z,0.14
2022-12-04T03:46:08.327Z,0.12
2022-12-04T03:48:59.355Z,0.11
2022-12-04T03:51:34.996Z,0.11
2022-12-04T03:54:11.919Z,-0.02
2022-12-04T03:57:01.430Z,-0.07
2022-12-04T03:59:35.246Z,-0.08
2022-12-04T04:02:04.852Z,-0.07
2022-12-04T04:04:36.509Z,-0.23
2022-12-04T04:07:09.632Z,-0.18
2022-12-04T04:09:41.652Z,-0.18
2022-12-04T04:12:22.620Z,-0.21
2022-12-04T04:15:11.629Z,-0.16
2022-12-04T04:17:48.637Z,-0.11
2022-12-04T04:20:42.028Z,-0.13
2022-12-04T04:23:30.176Z,-0.12
2022-12-04T04:26:03.096Z,-0.26
2022-12-04T04:28:35.435Z,-0.34
2022-12-04T04:31:11.364Z,-0.29
2022-12-04T04:34:07.087Z,-0.25
2022-12-04T04:36:36.842Z,-0.28
2022-12-04T04:39:23.662Z,-0.47
2022-12-04T04:41:56.964Z,-0.49
2022-12-04T04:44:32.462Z,-0.44
2022-12-04T04:47:04.232Z,-0.51
2022-12-04T04:49:34.052Z,-0.48
2022-12-04T04:52:01.223Z,-0.46
2022-12-04T04:54:29.646Z,-0.43
2022-12-04T04:56:56.280Z,-0.42
2022-12-04T04:59:22.888Z,-0.54
2022-12-04T05:01:49.799Z,-0.49
2022-12-04T05:04:16.565Z,-0.54
2022-12-04T05:06:43.104Z,-0.63
2022-12-04T05:09:09.782Z,-0.65
2022-12-04T05:11:36.475Z,-0.66
2022-12-04T05:14:03.267Z,-0.72
2022-12-04T05:16:30.055Z,-0.67
2022-12-04T05:19:32.172Z,-0.78
2022-12-04T05:21:58.842Z,-0.70
2022-12-04T05:24:25.561Z,-0.67
2022-12-04T05:26:52.175Z,-0.69
2022-12-04T05:29:18.769Z,-0.72
2022-12-04T05:31:45.456Z,-0.82
2022-12-04T05:34:12.207Z,-0.91
2022-12-04T05:36:38.892Z,-0.96
2022-12-04T05:39:05.480Z,-1.02
2022-12-04T05:41:35.259Z,-0.95
2022-12-04T05:44:01.876Z,-0.90
2022-12-04T05:46:28.537Z,-0.89
2022-12-04T05:48:55.223Z,-0.99
2022-12-04T05:51:21.850Z,-1.12
2022-12-04T05:53:52.132Z,-1.07
2022-12-04T05:56:18.764Z,-1.05
2022-12-04T05:58:45.360Z,-0.88
2022-12-04T06:01:23.460Z,-0.91
2022-12-04T06:03:50.808Z,-0.81
2022-12-04T06:06:22.246Z,-0.96
2022-12-04T06:08:51.567Z,-0.84
2022-12-04T06:11:24.795Z,-0.89
2022-12-04T06:13:51.673Z,-0.92
2022-12-04T06:16:19.859Z,-0.94
2022-12-04T06:18:55.135Z,-0.85
2022-12-04T06:21:23.259Z,-0.85
2022-12-04T06:23:50.622Z,-0.77
2022-12-04T06:26:17.780Z,-0.73
2022-12-04T06:28:44.433Z,-0.88
2022-12-04T06:31:14.060Z,-0.93
2022-12-04T06:33:43.188Z,-0.92
2022-12-04T06:36:15.886Z,-0.78
2022-12-04T06:38:42.986Z,-0.81
2022-12-04T06:41:12.552Z,-0.92
2022-12-04T06:43:40.379Z,-0.87
2022-12-04T06:46:22.391Z,-0.82
2022-12-04T06:48:49.875Z,-0.86
2022-12-04T06:51:24.788Z,-0.74
2022-12-04T06:53:52.479Z,-0.67
2022-12-04T06:56:25.531Z,-0.58
2022-12-04T06:58:54.792Z,-0.52
2022-12-04T07:01:27.217Z,-0.41
2022-12-04T07:03:54.788Z,-0.29
2022-12-04T07:06:25.506Z,-0.20
2022-12-04T07:08:55.237Z,-0.17
2022-12-04T07:11:22.626Z,-0.22
2022-12-04T07:13:50.654Z,-0.27
2022-12-04T07:16:20.629Z,-0.19
2022-12-04T07:18:50.404Z,-0.25
2022-12-04T07:21:19.290Z,-0.25
2022-12-04T07:23:51.174Z,-0.30
2022-12-04T07:26:18.706Z,-0.62
2022-12-04T07:28:45.736Z,-0.57
2022-12-04T07:31:15.417Z,-0.39
2022-12-04T07:33:42.657Z,-0.45
2022-12-04T07:36:13.081Z,-0.35
2022-12-04T07:38:40.265Z,-0.19
2022-12-04T07:41:08.221Z,-0.09
2022-12-04T07:43:35.065Z,-0.05
2022-12-04T07:46:07.379Z,-0.02
2022-12-04T07:48:34.514Z,0.07
2022-12-04T07:51:09.622Z,-0.05
2022-12-04T07:53:37.014Z,0.05
2022-12-04T07:56:05.587Z,0.14
2022-12-04T07:58:33.590Z,0.31
2022-12-04T08:01:12.505Z,0.31
2022-12-04T08:03:46.689Z,0.28
2022-12-04T08:06:14.290Z,0.20
2022-12-04T08:08:40.926Z,0.39
2022-12-04T08:11:09.587Z,0.38
2022-12-04T08:13:36.578Z,0.67
2022-12-04T08:16:05.247Z,0.85
2022-12-04T08:18:32.504Z,0.95
2022-12-04T08:21:14.044Z,0.99
2022-12-04T08:23:43.222Z,0.96
2022-12-04T08:26:11.644Z,1.00
2022-12-04T08:28:39.524Z,0.91
2022-12-04T08:31:11.873Z,0.93
2022-12-04T08:33:39.247Z,0.97
2022-12-04T08:36:07.618Z,1.10
2022-12-04T08:38:34.559Z,1.09
2022-12-04T08:41:06.393Z,1.13
2022-12-04T08:43:33.377Z,1.10
2022-12-04T08:46:02.255Z,1.21
2022-12-04T08:48:29.288Z,1.26
2022-12-04T08:50:56.076Z,1.32
2022-12-04T08:53:23.193Z,1.46
2022-12-04T08:55:50.669Z,1.52
2022-12-04T08:58:17.905Z,1.55
2022-12-04T09:00:44.624Z,1.56
2022-12-04T09:03:17.270Z,1.60
2022-12-04T09:05:46.001Z,1.68
2022-12-04T09:08:17.717Z,1.71
2022-12-04T09:10:44.976Z,1.78
2022-12-04T09:13:11.707Z,1.79
2022-12-04T09:15:40.161Z,1.83
2022-12-04T09:18:08.239Z,1.81
2022-12-04T09:20:35.302Z,1.83
2022-12-04T09:23:04.449Z,1.93
2022-12-04T09:25:34.802Z,2.04
2022-12-04T09:28:01.390Z,2.08
2022-12-04T09:30:28.002Z,2.07
2022-12-04T09:32:54.606Z,2.14
2022-12-04T09:35:21.258Z,2.22
2022-12-04T09:37:47.859Z,2.40
2022-12-04T09:40:35.519Z,2.42
2022-12-04T09:43:26.027Z,2.54
2022-12-04T09:45:58.848Z,2.60
2022-12-04T09:48:33.359Z,2.62
2022-12-04T09:51:01.784Z,2.70
2022-12-04T09:53:34.700Z,2.73
2022-12-04T09:56:05.866Z,2.75
2022-12-04T09:58:50.848Z,2.90
2022-12-04T10:01:49.537Z,3.00
2022-12-04T10:04:17.355Z,3.09
2022-12-04T10:06:47.162Z,3.04
2022-12-04T10:09:30.022Z,3.04
2022-12-04T10:12:14.656Z,3.10
2022-12-04T10:15:03.258Z,3.18
2022-12-04T10:17:56.271Z,3.27
2022-12-04T10:20:44.389Z,3.38
2022-12-04T10:23:17.189Z,3.43
2022-12-04T10:25:43.891Z,3.52
2022-12-04T10:28:47.434Z,3.59
2022-12-04T10:31:17.512Z,3.69
2022-12-04T10:33:56.098Z,3.78
2022-12-04T10:36:30.439Z,3.90
2022-12-04T10:39:37.131Z,3.91
2022-12-04T10:42:35.850Z,3.90
2022-12-04T10:45:02.501Z,3.96
2022-12-04T10:47:29.231Z,4.00
2022-12-04T10:50:02.423Z,4.06
2022-12-04T10:52:29.096Z,4.19
2022-12-04T10:54:59.825Z,4.23
2022-12-04T10:57:44.224Z,4.31
2022-12-04T11:00:24.658Z,4.37
2022-12-04T11:02:52.635Z,4.43
2022-12-04T11:05:38.832Z,4.53
2022-12-04T11:08:07.772Z,4.47
2022-12-04T11:10:43.059Z,4.45
2022-12-04T11:13:12.799Z,4.50
2022-12-04T11:15:48.366Z,4.57
2022-12-04T11:18:46.300Z,4.60
2022-12-04T11:21:17.004Z,4.65
2022-12-04T11:23:46.163Z,4.69
2022-12-04T11:26:13.719Z,4.82
2022-12-04T11:28:45.658Z,4.99
2022-12-04T11:31:20.506Z,5.07
2022-12-04T11:33:48.987Z,5.01
2022-12-04T11:36:23.596Z,4.98
2022-12-04T11:38:53.404Z,5.00
2022-12-04T11:41:26.602Z,5.20
2022-12-04T11:43:59.369Z,5.37
2022-12-04T11:46:30.678Z,5.39
2022-12-04T11:48:57.711Z,5.37
2022-12-04T11:51:49.173Z,5.51
2022-12-04T11:54:21.950Z,5.59
2022-12-04T11:57:02.130Z,5.57
2022-12-04T11:59:47.572Z,5.52
2022-12-04T12:02:52.793Z,5.60
2022-12-04T12:05:56.822Z,5.72
2022-12-04T12:08:34.744Z,5.80
2022-12-04T12:11:16.628Z,5.76
2022-12-04T12:14:16.351Z,5.65
2022-12-04T12:19:27.797Z,5.87
2022-12-04T12:22:50.039Z,5.89
2022-12-04T12:25:22.012Z,5.77
2022-12-04T12:28:13.478Z,5.92
2022-12-04T12:31:08.693Z,6.18
2022-12-04T12:33:59.474Z,6.32
2022-12-04T12:36:31.678Z,6.31
2022-12-04T12:39:23.514Z,6.40
2022-12-04T12:41:56.337Z,6.29
2022-12-04T12:44:30.507Z,6.33
2022-12-04T12:47:04.138Z,6.48
2022-12-04T12:49:58.124Z,6.72
2022-12-04T12:52:31.789Z,6.73
2022-12-04T12:55:13.669Z,6.72
2022-12-04T12:57:44.291Z,6.96
2022-12-04T13:00:20.077Z,7.02
2022-12-04T13:02:58.204Z,7.00
2022-12-04T13:05:40.796Z,6.87
2022-12-04T13:08:20.293Z,6.68
2022-12-04T13:11:07.507Z,6.79
2022-12-04T13:13:39.313Z,6.91
2022-12-04T13:16:13.538Z,6.89
2022-12-04T13:18:46.349Z,6.73
2022-12-04T13:21:31.894Z,6.81
2022-12-04T13:24:19.971Z,6.91
2022-12-04T13:27:18.333Z,6.91
2022-12-04T13:30:06.843Z,6.86
2022-12-04T13:32:48.411Z,6.77
2022-12-04T13:35:21.093Z,6.84
2022-12-04T13:38:11.799Z,6.93
2022-12-04T13:40:45.240Z,6.75
2022-12-04T13:43:17.250Z,6.51
2022-12-04T13:45:49.231Z,6.32
2022-12-04T13:48:28.320Z,6.32
2022-12-04T13:51:04.455Z,6.33
2022-12-04T13:53:33.364Z,6.26
2022-12-04T13:56:04.561Z,6.03
2022-12-04T13:58:36.174Z,5.97
2022-12-04T14:01:04.381Z,5.91
2022-12-04T14:03:52.544Z,5.59
2022-12-04T14:06:38.648Z,5.46
2022-12-04T14:09:18.605Z,5.32
2022-12-04T14:11:48.107Z,5.23
2022-12-04T14:14:26.735Z,5.18
2022-12-04T14:16:54.785Z,4.99
2022-12-04T14:19:45.147Z,4.90
2022-12-04T14:22:35.362Z,4.87
2022-12-04T14:25:34.275Z,4.77
2022-12-04T14:28:13.627Z,4.66
2022-12-04T14:30:40.771Z,4.63
2022-12-04T14:33:21.284Z,4.59
2022-12-04T14:36:05.350Z,4.49
2022-12-04T14:38:32.892Z,4.48
2022-12-04T14:41:01.737Z,4.48
2022-12-04T14:43:35.494Z,4.47
2022-12-04T14:46:20.081Z,4.30
2022-12-04T14:49:00.563Z,4.13
2022-12-04T14:51:33.028Z,4.12
2022-12-04T14:54:41.626Z,4.10
2022-12-04T14:57:35.388Z,4.04
2022-12-04T15:00:05.240Z,3.99
2022-12-04T15:02:39.092Z,3.95
2022-12-04T15:05:11.322Z,3.85
2022-12-04T15:07:48.098Z,3.85
2022-12-04T15:10:40.955Z,3.77
2022-12-04T15:13:08.198Z,3.79
2022-12-04T15:15:35.179Z,3.78
2022-12-04T15:18:15.097Z,3.72
2022-12-04T15:20:51.303Z,3.73
2022-12-04T15:23:33.556Z,3.78
2022-12-04T15:26:11.848Z,3.80
2022-12-04T15:28:45.761Z,3.76
2022-12-04T15:31:17.489Z,3.74
2022-12-04T15:33:46.514Z,3.64
2022-12-04T15:36:18.583Z,3.56
2022-12-04T15:38:48.591Z,3.59
2022-12-04T15:41:34.070Z,3.59
2022-12-04T15:44:01.371Z,3.52
2022-12-04T15:46:38.418Z,3.47
2022-12-04T15:49:27.000Z,3.43
2022-12-04T15:52:23.095Z,3.44
2022-12-04T15:55:00.196Z,3.41
2022-12-04T15:57:34.520Z,3.38
2022-12-04T16:00:06.374Z,3.31
2022-12-04T16:02:39.617Z,3.33
2022-12-04T16:05:12.360Z,3.33
2022-12-04T16:07:52.999Z,3.32
2022-12-04T16:10:23.851Z,3.34
2022-12-04T16:12:59.427Z,3.23
2022-12-04T16:15:34.925Z,3.25
2022-12-04T16:18:06.090Z,3.17
2022-12-04T16:20:37.286Z,3.11
2022-12-04T16:23:04.842Z,3.04
2022-12-04T16:25:32.062Z,2.97
2022-12-04T16:27:59.774Z,3.00
2022-12-04T16:30:28.409Z,2.93
2022-12-04T16:32:55.094Z,2.91
2022-12-04T16:35:21.678Z,2.93
2022-12-04T16:37:48.424Z,2.94
2022-12-04T16:40:15.621Z,2.91
2022-12-04T16:42:42.778Z,2.85
2022-12-04T16:45:31.870Z,2.83
2022-12-04T16:47:58.586Z,2.80
2022-12-04T16:50:27.028Z,2.74
2022-12-04T16:52:54.147Z,2.65
2022-12-04T16:55:41.313Z,2.65
2022-12-04T16:58:08.341Z,2.69
2022-12-04T17:00:36.514Z,2.73
2022-12-04T17:03:04.520Z,2.77
2022-12-04T17:05:35.780Z,2.79
2022-12-04T17:08:03.888Z,2.81
2022-12-04T17:10:30.614Z,2.93
2022-12-04T17:12:57.294Z,2.94
2022-12-04T17:15:24.129Z,2.93
2022-12-04T17:17:51.163Z,2.98
2022-12-04T17:20:19.774Z,2.93
2022-12-04T17:22:46.426Z,2.99
2022-12-04T17:25:13.786Z,2.96
2022-12-04T17:27:40.610Z,2.94
2022-12-04T17:30:09.934Z,2.93
2022-12-04T17:32:36.977Z,2.91
2022-12-04T17:35:05.808Z,3.00
2022-12-04T17:37:33.659Z,2.90
2022-12-04T17:40:00.324Z,2.90
2022-12-04T17:42:27.878Z,2.92
2022-12-04T17:44:54.600Z,2.97
2022-12-04T17:47:21.503Z,3.01
2022-12-04T17:49:48.129Z,2.94
2022-12-04T17:52:14.986Z,2.94
2022-12-04T17:54:41.717Z,2.95
2022-12-04T17:57:08.367Z,2.95
2022-12-04T17:59:35.036Z,3.01
2022-12-04T18:02:04.085Z,3.05
2022-12-04T18:04:30.726Z,3.07
2022-12-04T18:06:57.417Z,3.06
2022-12-04T18:09:24.019Z,3.08
2022-12-04T18:11:50.793Z,2.96
2022-12-04T18:14:22.222Z,2.94
2022-12-04T18:16:53.283Z,2.89
2022-12-04T18:19:22.021Z,2.91
2022-12-04T18:21:49.082Z,2.87
2022-12-04T18:24:16.900Z,2.80
2022-12-04T18:26:46.059Z,2.83
2022-12-04T18:29:14.780Z,2.82
2022-12-04T18:31:41.890Z,2.89
2022-12-04T18:34:09.494Z,2.95
2022-12-04T18:36:40.002Z,2.88
2022-12-04T18:39:10.771Z,2.82
2022-12-04T18:41:37.656Z,2.80
2022-12-04T18:44:04.606Z,2.75
2022-12-04T18:46:31.534Z,2.76
2022-12-04T18:48:59.289Z,2.80
2022-12-04T18:51:27.321Z,2.69
2022-12-04T18:53:57.301Z,2.58
2022-12-04T18:56:24.365Z,2.59
2022-12-04T18:58:56.813Z,2.56
2022-12-04T19:01:23.573Z,2.51
2022-12-04T19:03:50.249Z,2.49
2022-12-04T19:06:16.945Z,2.50
2022-12-04T19:08:43.811Z,2.48
2022-12-04T19:11:13.159Z,2.50
2022-12-04T19:13:40.176Z,2.44
2022-12-04T19:16:17.440Z,2.42
2022-12-04T19:18:47.754Z,2.45
2022-12-04T19:21:16.233Z,2.44
2022-12-04T19:23:48.462Z,2.42
2022-12-04T19:26:15.268Z,2.42
2022-12-04T19:28:41.921Z,2.41
2022-12-04T19:31:35.929Z,2.35
2022-12-04T19:34:03.470Z,2.22
2022-12-04T19:36:31.429Z,2.19
2022-12-04T19:38:58.900Z,2.17
2022-12-04T19:41:30.252Z,2.13
2022-12-04T19:43:59.744Z,2.14
2022-12-04T19:46:30.561Z,2.11
2022-12-04T19:49:01.552Z,2.12
2022-12-04T19:51:29.000Z,1.99
2022-12-04T19:53:55.719Z,1.98
2022-12-04T19:56:25.221Z,1.89
2022-12-04T19:58:53.387Z,1.88
2022-12-04T20:01:24.783Z,1.93
2022-12-04T20:03:51.468Z,1.98
2022-12-04T20:06:21.259Z,1.96
2022-12-04T20:08:53.001Z,1.85
2022-12-04T20:11:19.853Z,1.88
2022-12-04T20:13:48.866Z,1.85
2022-12-04T20:16:18.445Z,1.86
2022-12-04T20:18:45.593Z,1.81
2022-12-04T20:21:13.664Z,1.86
2022-12-04T20:23:41.437Z,1.84
2022-12-04T20:26:09.989Z,1.84
2022-12-04T20:28:37.326Z,1.93
2022-12-04T20:31:18.748Z,1.87
2022-12-04T20:33:47.278Z,1.91
2022-12-04T20:36:15.675Z,1.85
2022-12-04T20:38:42.780Z,1.82
2022-12-04T20:41:13.377Z,1.71
2022-12-04T20:43:40.114Z,1.64
2022-12-04T20:46:18.419Z,1.59
2022-12-04T20:48:48.979Z,1.52
2022-12-04T20:51:23.744Z,1.47
2022-12-04T20:53:51.811Z,1.49
2022-12-04T20:56:19.587Z,1.53
2022-12-04T20:58:46.353Z,1.53
2022-12-04T21:01:18.732Z,1.54
2022-12-04T21:03:47.053Z,1.60
2022-12-04T21:06:16.905Z,1.57
2022-12-04T21:08:57.010Z,1.61
2022-12-04T21:11:25.952Z,1.60
2022-12-04T21:14:26.107Z,1.58
2022-12-04T21:16:52.787Z,1.50
2022-12-04T21:19:21.856Z,1.57
2022-12-04T21:21:49.082Z,1.46
2022-12-04T21:24:17.756Z,1.31
2022-12-04T21:26:44.958Z,1.30
2022-12-04T21:29:11.714Z,1.25
2022-12-04T21:31:39.194Z,1.19
2022-12-04T21:34:07.827Z,1.16
2022-12-04T21:36:34.750Z,1.06
2022-12-04T21:39:01.416Z,0.98
2022-12-04T21:41:46.589Z,0.98
2022-12-04T21:44:16.435Z,0.97
2022-12-04T21:46:44.517Z,1.01
2022-12-04T21:49:11.956Z,0.99
2022-12-04T21:54:27.689Z,0.86
2022-12-04T21:56:55.155Z,0.81
2022-12-04T21:59:22.061Z,0.81
2022-12-04T22:01:48.818Z,0.75
2022-12-04T22:04:15.746Z,0.73
2022-12-04T22:06:42.795Z,0.68
2022-12-04T22:09:11.640Z,0.78
2022-12-04T22:11:41.354Z,0.78
2022-12-04T22:14:09.218Z,0.78
2022-12-04T22:16:41.656Z,0.77
2022-12-04T22:19:09.857Z,0.77
2022-12-04T22:21:36.615Z,0.77
2022-12-04T22:24:04.200Z,0.78
2022-12-04T22:26:31.372Z,0.70
2022-12-04T22:28:58.130Z,0.73
2022-12-04T22:31:27.984Z,0.68
2022-12-04T22:33:56.280Z,0.63
2022-12-04T22:36:25.794Z,0.62
2022-12-04T22:39:08.680Z,0.66
2022-12-04T22:41:35.801Z,0.68
2022-12-04T22:44:02.410Z,0.62
2022-12-04T22:46:29.216Z,0.62
2022-12-04T22:48:55.933Z,0.64
2022-12-04T22:51:23.019Z,0.60
2022-12-04T22:53:55.596Z,0.58
2022-12-04T22:56:31.701Z,0.48
2022-12-04T22:58:59.190Z,0.39
2022-12-04T23:01:28.368Z,0.31
2022-12-04T23:03:55.334Z,0.37
2022-12-04T23:06:24.096Z,0.42
2022-12-04T23:08:55.623Z,0.40
2022-12-04T23:11:23.536Z,0.35
2022-12-04T23:13:52.871Z,0.37
2022-12-04T23:16:21.186Z,0.31
2022-12-04T23:18:48.356Z,0.33
2022-12-04T23:21:17.590Z,0.29
2022-12-04T23:23:46.131Z,0.38
2022-12-04T23:26:15.850Z,0.38
2022-12-04T23:28:42.848Z,0.51
2022-12-04T23:31:11.023Z,0.49
2022-12-04T23:33:38.637Z,0.57
2022-12-04T23:36:06.529Z,0.44
2022-12-04T23:38:38.006Z,0.14
2022-12-04T23:41:12.138Z,0.13
2022-12-04T23:43:39.545Z,0.15
2022-12-04T23:46:14.629Z,0.15
2022-12-04T23:48:43.107Z,0.14
2022-12-04T23:51:11.848Z,0.17
2022-12-04T23:53:39.088Z,0.20
2022-12-04T23:56:18.462Z,0.23
2022-12-04T23:58:46.999Z,0.26
